Time;durP1;ratioP1;P1;durP2;ratioP2;P2;SDS_P1;SDS_P2;PMS_P1;PMS_P2;Temp;Humidity;BMP_temperature;BMP_pressure;BME280_temperature;BME280_humidity;BME280_pressure;Samples;Min_cycle;Max_cycle;Signal;HPM_P1;HPM_P2
2023/05/18 00:00:43;;;;;;;10.60;4.72;;;;;;;;;;6331413;22;20167;-91
2023/05/18 00:03:48;;;;;;;9.38;5.07;;;;;;;;;;6329990;22;20204;-91
2023/05/18 00:06:55;;;;;;;8.43;4.70;;;;;;;;;;6333155;22;20164;-93
2023/05/18 00:10:00;;;;;;;9.82;4.95;;;;;;;;;;6334760;22;20176;-91
2023/05/18 00:13:07;;;;;;;10.70;5.15;;;;;;;;;;6333648;22;20702;-90
2023/05/18 00:16:18;;;;;;;10.38;4.97;;;;;;;;;;6352579;22;20143;-91
2023/05/18 00:19:23;;;;;;;13.25;5.25;;;;;;;;;;6333826;22;20176;-93
2023/05/18 00:26:49;;;;;;;12.38;5.00;;;;;;;;;;6353537;22;20156;-93
2023/05/18 00:29:55;;;;;;;10.95;5.22;;;;;;;;;;6335504;22;20172;-89
2023/05/18 00:33:02;;;;;;;17.33;5.30;;;;;;;;;;6336446;22;20164;-91
2023/05/18 00:36:08;;;;;;;10.57;5.72;;;;;;;;;;6335370;22;20176;-91
2023/05/18 00:39:13;;;;;;;11.57;5.57;;;;;;;;;;6337039;22;20149;-91
2023/05/18 00:42:18;;;;;;;10.27;5.20;;;;;;;;;;6336858;22;20246;-91
2023/05/18 00:45:25;;;;;;;11.85;5.32;;;;;;;;;;6335231;22;20164;-90
2023/05/18 00:48:32;;;;;;;11.10;5.43;;;;;;;;;;6335984;22;20200;-91
2023/05/18 00:51:38;;;;;;;10.07;5.35;;;;;;;;;;6335389;22;20164;-93
2023/05/18 00:54:44;;;;;;;10.75;5.25;;;;;;;;;;6337177;22;20153;-91
2023/05/18 00:57:49;;;;;;;13.32;5.28;;;;;;;;;;6336291;22;20617;-91
2023/05/18 01:00:55;;;;;;;11.07;5.05;;;;;;;;;;6334009;22;20168;-90
2023/05/18 01:04:02;;;;;;;12.82;5.53;;;;;;;;;;6334801;22;20179;-91
2023/05/18 01:07:11;;;;;;;11.38;5.07;;;;;;;;;;6335782;22;20152;-91
2023/05/18 01:10:18;;;;;;;13.77;5.35;;;;;;;;;;6335489;22;20164;-91
2023/05/18 01:13:28;;;;;;;10.93;5.00;;;;;;;;;;6335364;22;20152;-91
2023/05/18 01:16:37;;;;;;;12.88;5.43;;;;;;;;;;6336911;22;20161;-91
2023/05/18 01:19:57;;;;;;;11.82;5.55;;;;;;;;;;6337090;22;20173;-90
2023/05/18 01:23:10;;;;;;;17.67;5.55;;;;;;;;;;6335542;22;20239;-92
2023/05/18 01:26:28;;;;;;;13.18;5.93;;;;;;;;;;6333845;22;20219;-92
2023/05/18 01:29:34;;;;;;;14.52;6.53;;;;;;;;;;6335089;22;20626;-91
2023/05/18 01:32:41;;;;;;;15.23;6.13;;;;;;;;;;6336786;22;20159;-91
2023/05/18 01:35:47;;;;;;;25.05;6.90;;;;;;;;;;6337536;22;20163;-91
2023/05/18 01:38:54;;;;;;;11.35;5.93;;;;;;;;;;6338449;22;20183;-92
2023/05/18 01:42:03;;;;;;;14.75;6.43;;;;;;;;;;6337415;22;20201;-90
2023/05/18 01:45:15;;;;;;;15.10;6.25;;;;;;;;;;6334507;22;20612;-91
2023/05/18 01:48:22;;;;;;;18.25;5.93;;;;;;;;;;6335489;22;20772;-91
2023/05/18 01:51:31;;;;;;;13.23;6.25;;;;;;;;;;6337175;22;20256;-92
2023/05/18 01:54:36;;;;;;;17.45;6.57;;;;;;;;;;6335667;22;20175;-93
2023/05/18 01:57:45;;;;;;;12.73;6.10;;;;;;;;;;6334450;22;20273;-91
2023/05/18 02:00:53;;;;;;;9.57;5.75;;;;;;;;;;6333376;22;20143;-93
2023/05/18 02:03:57;;;;;;;12.95;5.93;;;;;;;;;;6334624;22;20192;-92
2023/05/18 02:07:03;;;;;;;13.27;6.18;;;;;;;;;;6334490;22;20165;-88
2023/05/18 02:10:09;;;;;;;15.45;6.53;;;;;;;;;;6333991;22;20161;-91
2023/05/18 02:13:15;;;;;;;14.82;6.15;;;;;;;;;;6334429;22;20504;-91
2023/05/18 02:16:21;;;;;;;16.90;5.78;;;;;;;;;;6332746;22;20210;-91
2023/05/18 02:19:29;;;;;;;9.77;5.75;;;;;;;;;;6331900;22;20168;-92
2023/05/18 02:22:35;;;;;;;13.77;6.18;;;;;;;;;;6333246;22;20619;-92
2023/05/18 02:25:43;;;;;;;11.77;5.93;;;;;;;;;;6333939;22;20160;-90
2023/05/18 02:28:55;;;;;;;12.60;5.95;;;;;;;;;;6339484;22;20260;-93
2023/05/18 02:32:00;;;;;;;10.90;6.35;;;;;;;;;;6338676;22;20165;-88
2023/05/18 02:35:06;;;;;;;13.50;5.95;;;;;;;;;;6337881;22;20159;-89
2023/05/18 02:38:12;;;;;;;10.88;6.00;;;;;;;;;;6338082;22;20202;-91
2023/05/18 02:41:17;;;;;;;16.13;6.65;;;;;;;;;;6339199;22;20153;-91
2023/05/18 02:44:23;;;;;;;14.90;6.40;;;;;;;;;;6335233;22;20273;-92
2023/05/18 02:47:28;;;;;;;15.65;6.13;;;;;;;;;;6337922;22;20168;-90
2023/05/18 02:50:33;;;;;;;12.55;6.45;;;;;;;;;;6338709;22;20669;-90
2023/05/18 02:53:39;;;;;;;15.45;6.47;;;;;;;;;;6339102;22;20152;-90
2023/05/18 02:56:49;;;;;;;15.48;6.43;;;;;;;;;;6338821;22;20165;-90
2023/05/18 03:00:09;;;;;;;12.27;6.15;;;;;;;;;;6308582;22;20623;-89
2023/05/18 03:03:15;;;;;;;12.60;5.80;;;;;;;;;;6306563;22;20192;-91
2023/05/18 03:06:25;;;;;;;11.60;6.30;;;;;;;;;;6304987;22;20164;-91
2023/05/18 03:09:30;;;;;;;13.52;6.70;;;;;;;;;;6307437;22;20154;-91
2023/05/18 03:12:35;;;;;;;11.60;6.28;;;;;;;;;;6306311;22;20206;-91
2023/05/18 03:15:44;;;;;;;16.25;6.72;;;;;;;;;;6306577;22;20616;-90
2023/05/18 03:23:05;;;;;;;17.00;6.63;;;;;;;;;;6326502;22;20169;-91
2023/05/18 03:30:25;;;;;;;14.70;6.35;;;;;;;;;;6326969;22;20635;-91
2023/05/18 03:33:32;;;;;;;12.05;6.28;;;;;;;;;;6307986;22;20149;-92
2023/05/18 03:36:37;;;;;;;15.43;6.85;;;;;;;;;;6307590;22;20169;-93
2023/05/18 03:39:42;;;;;;;10.20;6.30;;;;;;;;;;6303912;22;20293;-92
2023/05/18 03:42:48;;;;;;;12.05;6.57;;;;;;;;;;6302930;22;20613;-89
2023/05/18 03:45:54;;;;;;;17.45;7.20;;;;;;;;;;6304208;22;20169;-91
2023/05/18 03:49:02;;;;;;;13.85;6.40;;;;;;;;;;6304356;22;20165;-92
2023/05/18 03:52:14;;;;;;;13.63;6.80;;;;;;;;;;6306260;22;20165;-91
2023/05/18 03:55:20;;;;;;;15.90;7.25;;;;;;;;;;6303894;22;20168;-91
2023/05/18 03:58:26;;;;;;;12.65;6.00;;;;;;;;;;6318706;22;20230;-92
2023/05/18 04:01:33;;;;;;;9.52;6.03;;;;;;;;;;6337913;22;20161;-91
2023/05/18 04:04:40;;;;;;;13.40;6.80;;;;;;;;;;6352800;22;20192;-90
2023/05/18 04:07:46;;;;;;;15.00;6.72;;;;;;;;;;6336246;22;20164;-91
2023/05/18 04:10:51;;;;;;;13.93;6.75;;;;;;;;;;6334010;22;20172;-91
2023/05/18 04:13:57;;;;;;;11.63;7.15;;;;;;;;;;6336342;22;20195;-91
2023/05/18 04:17:03;;;;;;;17.30;7.03;;;;;;;;;;6336617;22;20206;-91
2023/05/18 04:20:13;;;;;;;13.63;6.90;;;;;;;;;;6355048;22;20283;-91
2023/05/18 04:23:20;;;;;;;12.35;6.43;;;;;;;;;;6334714;22;20188;-91
2023/05/18 04:26:27;;;;;;;17.40;7.40;;;;;;;;;;6335635;22;20180;-91
2023/05/18 04:29:37;;;;;;;12.07;6.80;;;;;;;;;;6336241;22;20168;-90
2023/05/18 04:32:42;;;;;;;12.48;6.55;;;;;;;;;;6337704;22;20669;-92
2023/05/18 04:35:53;;;;;;;11.65;6.63;;;;;;;;;;6336669;22;20172;-89
2023/05/18 04:39:02;;;;;;;14.20;7.00;;;;;;;;;;6336686;22;20152;-90
2023/05/18 04:42:09;;;;;;;12.50;6.95;;;;;;;;;;6335137;22;20169;-90
2023/05/18 04:45:16;;;;;;;12.07;6.22;;;;;;;;;;6335137;22;20195;-91
2023/05/18 04:48:22;;;;;;;13.00;6.90;;;;;;;;;;6353247;22;20169;-91
2023/05/18 04:51:29;;;;;;;14.07;6.25;;;;;;;;;;6336469;22;20161;-91
2023/05/18 04:54:33;;;;;;;10.93;6.63;;;;;;;;;;6354898;22;20249;-92
2023/05/18 04:57:38;;;;;;;13.95;6.72;;;;;;;;;;6336245;22;20156;-90
2023/05/18 05:00:45;;;;;;;13.93;7.50;;;;;;;;;;6336503;22;20164;-91
2023/05/18 05:03:50;;;;;;;14.63;6.32;;;;;;;;;;6338261;22;20219;-90
2023/05/18 05:06:56;;;;;;;12.93;7.00;;;;;;;;;;6336974;22;20502;-90
2023/05/18 05:10:02;;;;;;;16.50;7.55;;;;;;;;;;6337365;22;20497;-93
2023/05/18 05:13:08;;;;;;;12.30;7.10;;;;;;;;;;6337494;22;20215;-91
2023/05/18 05:16:13;;;;;;;16.50;6.70;;;;;;;;;;6338844;22;20160;-92
2023/05/18 05:19:18;;;;;;;14.05;7.00;;;;;;;;;;6336027;22;20592;-91
2023/05/18 05:22:43;;;;;;;12.50;6.50;;;;;;;;;;6336800;22;20156;-91
2023/05/18 05:25:51;;;;;;;13.70;6.63;;;;;;;;;;6336006;22;20676;-93
2023/05/18 05:29:14;;;;;;;14.13;6.88;;;;;;;;;;6335901;22;20152;-93
2023/05/18 05:32:20;;;;;;;17.50;6.82;;;;;;;;;;6335485;22;20172;-91
2023/05/18 05:35:25;;;;;;;16.40;7.20;;;;;;;;;;6336478;22;20167;-90
2023/05/18 05:38:32;;;;;;;12.50;6.20;;;;;;;;;;6336207;22;20211;-92
2023/05/18 05:41:36;;;;;;;14.60;6.55;;;;;;;;;;6335821;22;20165;-93
2023/05/18 05:44:43;;;;;;;12.40;6.47;;;;;;;;;;6335566;22;20278;-92
2023/05/18 05:47:49;;;;;;;16.92;6.35;;;;;;;;;;6334082;22;20200;-91
2023/05/18 05:50:56;;;;;;;10.82;6.18;;;;;;;;;;6333838;22;20211;-92
2023/05/18 05:54:03;;;;;;;13.45;5.90;;;;;;;;;;6336048;22;20168;-93
2023/05/18 05:57:08;;;;;;;11.60;6.57;;;;;;;;;;6335799;22;20196;-92
2023/05/18 06:00:15;;;;;;;11.82;6.35;;;;;;;;;;6335242;22;20171;-91
2023/05/18 06:03:28;;;;;;;9.93;5.72;;;;;;;;;;6353394;22;20164;-94
2023/05/18 06:06:35;;;;;;;10.63;6.40;;;;;;;;;;6333967;22;20179;-91
2023/05/18 06:09:42;;;;;;;11.07;5.65;;;;;;;;;;6337921;22;20152;-90
2023/05/18 06:12:49;;;;;;;11.50;5.57;;;;;;;;;;6335247;22;20164;-93
2023/05/18 06:15:54;;;;;;;10.90;5.47;;;;;;;;;;6335001;22;20206;-91
2023/05/18 06:19:00;;;;;;;10.75;5.03;;;;;;;;;;6335753;22;20172;-90
2023/05/18 06:22:11;;;;;;;10.05;5.10;;;;;;;;;;6335599;22;20199;-92
2023/05/18 06:25:26;;;;;;;11.65;5.60;;;;;;;;;;6335586;22;20230;-91
2023/05/18 06:28:48;;;;;;;10.95;4.80;;;;;;;;;;6335756;22;20718;-92
2023/05/18 06:32:22;;;;;;;16.83;5.10;;;;;;;;;;6342046;22;20172;-89
2023/05/18 06:35:32;;;;;;;10.98;5.07;;;;;;;;;;6337612;22;20152;-89
2023/05/18 06:38:37;;;;;;;15.25;4.40;;;;;;;;;;6337277;22;20155;-94
2023/05/18 06:41:45;;;;;;;17.27;4.50;;;;;;;;;;6336196;22;20163;-92
2023/05/18 06:44:57;;;;;;;7.30;4.07;;;;;;;;;;6334166;22;20207;-92
2023/05/18 06:48:23;;;;;;;10.68;4.35;;;;;;;;;;6352841;22;20191;-94
2023/05/18 06:51:28;;;;;;;13.48;4.20;;;;;;;;;;6333654;22;20219;-90
2023/05/18 06:54:34;;;;;;;18.20;4.65;;;;;;;;;;6333762;22;20499;-92
2023/05/18 06:57:41;;;;;;;9.95;3.70;;;;;;;;;;6333874;22;20168;-92
2023/05/18 07:00:48;;;;;;;11.43;3.67;;;;;;;;;;6333561;22;20172;-92
2023/05/18 07:03:53;;;;;;;8.65;3.20;;;;;;;;;;6336805;22;20323;-92
2023/05/18 07:06:59;;;;;;;8.40;3.08;;;;;;;;;;6335759;22;20215;-93
2023/05/18 07:10:08;;;;;;;12.55;3.40;;;;;;;;;;6338573;22;20164;-94
2023/05/18 07:16:36;;;;;;;13.18;3.28;;;;;;;;;;6339632;22;20191;-90
2023/05/18 07:19:41;;;;;;;10.85;3.10;;;;;;;;;;6340336;22;20169;-91
2023/05/18 07:22:47;;;;;;;11.63;2.80;;;;;;;;;;6339931;22;20164;-90
2023/05/18 07:25:52;;;;;;;12.20;3.05;;;;;;;;;;6340457;22;20199;-90
2023/05/18 07:28:59;;;;;;;18.10;5.70;;;;;;;;;;6339052;22;20694;-92
2023/05/18 07:32:04;;;;;;;15.07;3.38;;;;;;;;;;6336781;22;20173;-90
2023/05/18 07:35:10;;;;;;;15.77;2.85;;;;;;;;;;6338264;22;20168;-90
2023/05/18 07:38:16;;;;;;;9.98;2.65;;;;;;;;;;6336463;22;20165;-91
2023/05/18 07:41:22;;;;;;;8.60;3.05;;;;;;;;;;6355554;22;20152;-92
2023/05/18 07:44:29;;;;;;;13.88;2.92;;;;;;;;;;6338558;22;20193;-92
2023/05/18 07:47:34;;;;;;;10.93;2.90;;;;;;;;;;6341298;22;20191;-89
2023/05/18 07:50:39;;;;;;;11.10;3.42;;;;;;;;;;6337826;22;20494;-93
2023/05/18 07:53:44;;;;;;;6.10;2.55;;;;;;;;;;6338873;22;20164;-91
2023/05/18 07:56:50;;;;;;;12.80;3.10;;;;;;;;;;6338640;22;20240;-92
2023/05/18 07:59:57;;;;;;;10.60;3.10;;;;;;;;;;6337542;22;20653;-91
2023/05/18 08:03:03;;;;;;;10.93;2.72;;;;;;;;;;6336986;22;20207;-90
2023/05/18 08:06:08;;;;;;;13.07;3.03;;;;;;;;;;6337732;22;20192;-90
2023/05/18 08:09:13;;;;;;;8.80;2.40;;;;;;;;;;6336644;22;20169;-91
2023/05/18 08:12:18;;;;;;;9.95;2.63;;;;;;;;;;6337735;22;20179;-93
2023/05/18 08:15:25;;;;;;;10.85;2.28;;;;;;;;;;6336672;22;20214;-93
2023/05/18 08:18:30;;;;;;;14.27;2.30;;;;;;;;;;6336350;22;20229;-90
2023/05/18 08:21:41;;;;;;;9.18;2.60;;;;;;;;;;6333387;22;20164;-92
2023/05/18 08:24:47;;;;;;;12.30;2.67;;;;;;;;;;6334181;22;20188;-91
2023/05/18 08:28:36;;;;;;;8.93;1.98;;;;;;;;;;6335909;22;20268;-93
2023/05/18 08:31:44;;;;;;;10.18;2.38;;;;;;;;;;6338111;22;20214;-92
2023/05/18 08:34:50;;;;;;;7.65;2.20;;;;;;;;;;6353267;22;20164;-91
2023/05/18 08:37:56;;;;;;;9.07;2.50;;;;;;;;;;6336205;22;20225;-94
2023/05/18 08:41:04;;;;;;;8.90;1.92;;;;;;;;;;6339926;22;20165;-92
2023/05/18 08:44:14;;;;;;;11.55;2.70;;;;;;;;;;6320037;22;20167;-92
2023/05/18 08:47:25;;;;;;;7.93;2.40;;;;;;;;;;6338896;22;20161;-92
2023/05/18 08:50:37;;;;;;;12.90;2.95;;;;;;;;;;6339235;22;20183;-89
2023/05/18 08:53:44;;;;;;;8.73;2.30;;;;;;;;;;6308856;22;20283;-92
2023/05/18 08:56:51;;;;;;;9.73;2.25;;;;;;;;;;6291418;22;20177;-92
2023/05/18 08:59:57;;;;;;;11.25;2.35;;;;;;;;;;6291666;22;20157;-91
2023/05/18 09:03:18;;;;;;;9.70;2.35;;;;;;;;;;6292866;22;20166;-92
2023/05/18 09:06:25;;;;;;;9.85;2.22;;;;;;;;;;6292419;22;20181;-91
2023/05/18 09:09:30;;;;;;;13.75;2.03;;;;;;;;;;6290766;22;20166;-91
2023/05/18 09:12:40;;;;;;;7.72;2.08;;;;;;;;;;6291714;22;20200;-91
2023/05/18 09:15:46;;;;;;;9.40;2.10;;;;;;;;;;6293052;22;20493;-92
2023/05/18 09:18:57;;;;;;;8.18;2.20;;;;;;;;;;6293424;22;20241;-92
2023/05/18 09:22:41;;;;;;;5.47;2.20;;;;;;;;;;6294091;22;20161;-90
2023/05/18 09:25:48;;;;;;;10.02;2.30;;;;;;;;;;6292728;22;20226;-92
2023/05/18 09:28:56;;;;;;;8.27;2.20;;;;;;;;;;6292699;22;20174;-91
2023/05/18 09:32:03;;;;;;;7.47;2.30;;;;;;;;;;6291555;22;20258;-91
2023/05/18 09:35:11;;;;;;;9.60;2.50;;;;;;;;;;6289858;22;20169;-93
2023/05/18 09:41:38;;;;;;;8.07;2.00;;;;;;;;;;6293786;22;20146;-94
2023/05/18 09:44:45;;;;;;;10.00;2.80;;;;;;;;;;6310124;22;20520;-93
2023/05/18 09:48:00;;;;;;;6.53;1.90;;;;;;;;;;6290751;22;20166;-93
2023/05/18 09:55:06;;;;;;;6.80;2.50;;;;;;;;;;6320382;22;20246;-92
2023/05/18 09:58:12;;;;;;;15.48;2.80;;;;;;;;;;6303964;22;20193;-91
2023/05/18 10:01:17;;;;;;;9.50;2.08;;;;;;;;;;6304062;22;20164;-92
2023/05/18 10:04:22;;;;;;;11.70;2.20;;;;;;;;;;6305278;22;20165;-92
2023/05/18 10:07:30;;;;;;;7.63;2.53;;;;;;;;;;6304596;22;20239;-88
2023/05/18 10:10:39;;;;;;;6.18;1.73;;;;;;;;;;6305715;22;20173;-91
2023/05/18 10:13:46;;;;;;;11.57;2.58;;;;;;;;;;6304274;22;20169;-90
2023/05/18 10:16:52;;;;;;;9.10;2.00;;;;;;;;;;6303727;22;20165;-92
2023/05/18 10:19:57;;;;;;;28.80;2.58;;;;;;;;;;6305691;22;20241;-91
2023/05/18 10:23:07;;;;;;;7.00;1.90;;;;;;;;;;6302976;22;20180;-92
2023/05/18 10:26:13;;;;;;;8.35;2.40;;;;;;;;;;6305738;22;20220;-92
2023/05/18 10:29:18;;;;;;;10.05;2.50;;;;;;;;;;6303944;22;20243;-89
2023/05/18 10:32:24;;;;;;;8.68;2.28;;;;;;;;;;6305323;22;20169;-92
2023/05/18 10:35:30;;;;;;;8.88;2.42;;;;;;;;;;6305086;22;20671;-91
2023/05/18 10:38:39;;;;;;;6.53;1.90;;;;;;;;;;6323394;22;20208;-92
2023/05/18 10:41:48;;;;;;;11.45;2.20;;;;;;;;;;6308887;22;20162;-89
2023/05/18 11:49:12;;;;;;;11.93;2.70;;;;;;;;;;6259879;22;20197;-89
2023/05/18 13:02:44;;;;;;;7.97;1.90;;;;;;;;;;6249007;22;20261;-90
2023/05/18 13:09:22;;;;;;;10.43;2.40;;;;;;;;;;6274262;22;20161;-92
2023/05/18 13:12:36;;;;;;;8.45;2.53;;;;;;;;;;6274531;22;20220;-93
2023/05/18 13:15:41;;;;;;;8.45;3.08;;;;;;;;;;6274801;22;20189;-90
2023/05/18 13:18:56;;;;;;;6.50;2.03;;;;;;;;;;6275211;22;20193;-90
2023/05/18 13:22:02;;;;;;;12.75;2.45;;;;;;;;;;6277132;22;20170;-91
2023/05/18 13:25:08;;;;;;;8.15;2.25;;;;;;;;;;6274826;22;20168;-92
2023/05/18 13:28:14;;;;;;;9.38;2.92;;;;;;;;;;6273978;22;20224;-90
2023/05/18 13:31:21;;;;;;;7.78;2.38;;;;;;;;;;6272273;22;20509;-90
2023/05/18 13:34:28;;;;;;;7.72;2.30;;;;;;;;;;6274523;22;20181;-91
2023/05/18 13:37:33;;;;;;;7.22;2.33;;;;;;;;;;6274562;22;20192;-91
2023/05/18 13:40:44;;;;;;;13.05;2.80;;;;;;;;;;6274082;22;20183;-92
2023/05/18 13:43:50;;;;;;;5.97;2.25;;;;;;;;;;6275349;22;20244;-90
2023/05/18 13:46:55;;;;;;;9.90;2.50;;;;;;;;;;6275180;22;20256;-90
2023/05/18 13:50:02;;;;;;;6.55;1.95;;;;;;;;;;6273284;22;20236;-91
2023/05/18 13:53:07;;;;;;;5.32;2.03;;;;;;;;;;6276475;22;20235;-93
2023/05/18 13:56:15;;;;;;;9.48;2.72;;;;;;;;;;6273306;22;20267;-92
2023/05/18 13:59:20;;;;;;;5.97;1.92;;;;;;;;;;6274301;22;20212;-90
2023/05/18 14:02:26;;;;;;;12.40;2.60;;;;;;;;;;6292309;22;20234;-89
2023/05/18 14:05:33;;;;;;;8.95;2.30;;;;;;;;;;6272230;22;20198;-89
2023/05/18 14:08:38;;;;;;;14.80;3.70;;;;;;;;;;6273934;22;20208;-91
2023/05/18 14:11:42;;;;;;;39.03;14.30;;;;;;;;;;6273934;22;20624;-92
2023/05/18 14:14:51;;;;;;;11.45;4.30;;;;;;;;;;6274285;22;20236;-93
2023/05/18 14:17:57;;;;;;;10.93;3.10;;;;;;;;;;6272877;22;20177;-91
2023/05/18 14:21:05;;;;;;;8.25;2.40;;;;;;;;;;6271988;22;20241;-92
2023/05/18 14:24:11;;;;;;;13.65;2.70;;;;;;;;;;6274746;22;20166;-91
2023/05/18 14:30:55;;;;;;;7.25;2.45;;;;;;;;;;6294437;22;20166;-91
2023/05/18 14:34:06;;;;;;;13.00;3.05;;;;;;;;;;6280881;22;20172;-90
2023/05/18 14:37:16;;;;;;;10.75;3.17;;;;;;;;;;6262891;22;20232;-92
2023/05/18 14:40:22;;;;;;;9.95;2.50;;;;;;;;;;6276862;22;20500;-91
2023/05/18 14:43:27;;;;;;;7.25;2.05;;;;;;;;;;6274682;22;20257;-92
2023/05/18 14:46:33;;;;;;;10.70;2.83;;;;;;;;;;6275411;22;20154;-90
2023/05/18 14:49:38;;;;;;;9.23;2.63;;;;;;;;;;6275182;22;20145;-94
2023/05/18 14:52:45;;;;;;;7.68;2.70;;;;;;;;;;6277634;22;20189;-91
2023/05/18 14:59:10;;;;;;;9.95;2.38;;;;;;;;;;6274947;22;20182;-91
2023/05/18 15:02:15;;;;;;;6.32;2.25;;;;;;;;;;6275351;22;20189;-91
2023/05/18 15:05:20;;;;;;;5.63;2.25;;;;;;;;;;6274475;22;20181;-92
2023/05/18 15:08:27;;;;;;;6.47;2.15;;;;;;;;;;6275482;22;20178;-93
2023/05/18 15:11:33;;;;;;;11.07;3.00;;;;;;;;;;6275799;22;20162;-90
2023/05/18 15:14:39;;;;;;;8.68;2.75;;;;;;;;;;6278849;22;20166;-92
2023/05/18 15:18:14;;;;;;;11.35;2.97;;;;;;;;;;6277205;22;20300;-93
2023/05/18 15:21:32;;;;;;;11.20;3.95;;;;;;;;;;6277861;22;20162;-91
2023/05/18 15:24:42;;;;;;;8.07;2.33;;;;;;;;;;6275692;22;20212;-91
2023/05/18 15:27:49;;;;;;;7.75;2.00;;;;;;;;;;6275736;22;20232;-90
2023/05/18 15:30:54;;;;;;;7.38;2.78;;;;;;;;;;6279173;22;20170;-93
2023/05/18 15:34:01;;;;;;;27.15;8.13;;;;;;;;;;6276022;22;20161;-91
2023/05/18 15:37:07;;;;;;;7.50;2.45;;;;;;;;;;6277187;22;20201;-91
2023/05/18 15:40:25;;;;;;;12.90;5.05;;;;;;;;;;6277416;22;20169;-92
2023/05/18 15:43:35;;;;;;;15.73;5.55;;;;;;;;;;6279749;22;20173;-93
2023/05/18 15:46:40;;;;;;;10.88;2.30;;;;;;;;;;6276622;22;20193;-93
2023/05/18 15:49:46;;;;;;;9.57;2.78;;;;;;;;;;6277011;22;20165;-92
2023/05/18 15:56:21;;;;;;;13.95;4.70;;;;;;;;;;6275821;22;20270;-92
2023/05/18 15:59:26;;;;;;;7.32;2.67;;;;;;;;;;6275812;22;20176;-91
2023/05/18 16:02:31;;;;;;;10.30;3.45;;;;;;;;;;6276134;22;20153;-92
2023/05/18 16:05:36;;;;;;;11.25;2.72;;;;;;;;;;6276662;22;20169;-92
2023/05/18 16:08:44;;;;;;;7.93;2.67;;;;;;;;;;6276430;22;20177;-91
2023/05/18 16:11:53;;;;;;;8.05;2.30;;;;;;;;;;6276702;22;20157;-92
2023/05/18 16:14:59;;;;;;;12.80;2.85;;;;;;;;;;6277267;22;20226;-90
2023/05/18 16:18:08;;;;;;;6.38;2.25;;;;;;;;;;6277087;22;20221;-92
2023/05/18 16:21:14;;;;;;;4.57;2.33;;;;;;;;;;6276788;22;20178;-90
2023/05/18 16:24:22;;;;;;;6.80;2.47;;;;;;;;;;6276277;22;20149;-90
2023/05/18 16:27:29;;;;;;;14.20;3.38;;;;;;;;;;6277123;22;20153;-92
2023/05/18 16:30:35;;;;;;;8.10;2.65;;;;;;;;;;6276651;22;20209;-91
2023/05/18 16:33:42;;;;;;;7.30;2.78;;;;;;;;;;6275482;22;20215;-91
2023/05/18 16:36:48;;;;;;;9.30;2.80;;;;;;;;;;6274649;22;20261;-90
2023/05/18 16:39:54;;;;;;;9.13;2.85;;;;;;;;;;6275091;22;20178;-91
2023/05/18 16:43:01;;;;;;;9.55;2.53;;;;;;;;;;6273700;22;20170;-91
2023/05/18 16:46:08;;;;;;;6.88;2.40;;;;;;;;;;6276309;22;20233;-92
2023/05/18 16:49:14;;;;;;;6.40;2.63;;;;;;;;;;6275888;22;20184;-91
2023/05/18 16:52:20;;;;;;;6.55;3.00;;;;;;;;;;6273579;22;20239;-92
2023/05/18 16:55:25;;;;;;;12.25;3.15;;;;;;;;;;6274124;22;20170;-90
2023/05/18 16:58:32;;;;;;;7.35;2.88;;;;;;;;;;6275026;22;20214;-92
2023/05/18 17:01:38;;;;;;;10.95;3.42;;;;;;;;;;6277271;22;20212;-93
2023/05/18 17:04:48;;;;;;;6.68;2.30;;;;;;;;;;6278702;22;20212;-93
2023/05/18 17:10:40;;;;;;;8.80;2.88;;;;;;;;;;6337053;22;20213;-89
2023/05/18 17:13:47;;;;;;;10.20;2.40;;;;;;;;;;6338714;22;20204;-92
2023/05/18 17:16:55;;;;;;;7.32;2.60;;;;;;;;;;6338675;22;20196;-91
2023/05/18 17:20:00;;;;;;;9.15;2.80;;;;;;;;;;6338563;22;20237;-91
2023/05/18 17:23:06;;;;;;;8.43;2.38;;;;;;;;;;6338400;22;20190;-93
2023/05/18 17:26:15;;;;;;;13.50;3.80;;;;;;;;;;6340877;22;20157;-92
2023/05/18 17:29:24;;;;;;;8.50;3.28;;;;;;;;;;6338428;22;20172;-90
2023/05/18 17:32:29;;;;;;;10.02;3.83;;;;;;;;;;6340187;22;20156;-92
2023/05/18 17:35:40;;;;;;;14.02;3.13;;;;;;;;;;6339322;22;20187;-91
2023/05/18 17:38:45;;;;;;;11.30;3.25;;;;;;;;;;6339617;22;20152;-91
2023/05/18 17:41:53;;;;;;;24.95;11.05;;;;;;;;;;6336766;22;20209;-89
2023/05/18 17:45:00;;;;;;;11.70;3.53;;;;;;;;;;6355830;22;20168;-91
2023/05/18 17:48:05;;;;;;;10.38;3.72;;;;;;;;;;6339443;22;20168;-91
2023/05/18 17:51:11;;;;;;;13.55;3.85;;;;;;;;;;6336365;22;20207;-91
2023/05/18 17:54:16;;;;;;;15.98;6.53;;;;;;;;;;6337690;22;20168;-93
2023/05/18 17:57:26;;;;;;;13.63;4.13;;;;;;;;;;6335932;22;20322;-93
2023/05/18 18:00:33;;;;;;;12.07;4.60;;;;;;;;;;6335651;22;20168;-91
2023/05/18 18:03:39;;;;;;;12.73;3.50;;;;;;;;;;6332806;22;20169;-91
2023/05/18 18:06:44;;;;;;;6.88;3.35;;;;;;;;;;6333832;22;20168;-90
2023/05/18 18:09:49;;;;;;;15.27;3.70;;;;;;;;;;6336229;22;20176;-92
2023/05/18 18:12:56;;;;;;;9.85;3.38;;;;;;;;;;6336637;22;20163;-90
2023/05/18 18:16:11;;;;;;;14.52;3.38;;;;;;;;;;6336708;22;20165;-92
2023/05/18 18:19:17;;;;;;;8.93;3.50;;;;;;;;;;6333640;22;20165;-92
2023/05/18 18:22:23;;;;;;;11.50;3.17;;;;;;;;;;6334225;22;20238;-89
2023/05/18 18:25:28;;;;;;;18.08;4.60;;;;;;;;;;6334211;22;20160;-91
2023/05/18 18:28:35;;;;;;;11.70;3.20;;;;;;;;;;6337339;22;20156;-92
2023/05/18 18:31:42;;;;;;;12.23;3.33;;;;;;;;;;6336120;22;20233;-91
2023/05/18 18:34:47;;;;;;;12.73;4.63;;;;;;;;;;6336554;22;20169;-93
2023/05/18 18:37:52;;;;;;;11.25;3.50;;;;;;;;;;6334318;22;20246;-93
2023/05/18 18:41:00;;;;;;;14.75;3.60;;;;;;;;;;6332680;22;20168;-90
2023/05/18 18:44:05;;;;;;;13.63;3.35;;;;;;;;;;6334321;22;20622;-93
2023/05/18 18:47:12;;;;;;;11.27;4.25;;;;;;;;;;6337639;22;20177;-92
2023/05/18 18:50:17;;;;;;;14.98;3.90;;;;;;;;;;6339464;22;20191;-92
2023/05/18 18:53:23;;;;;;;10.90;3.40;;;;;;;;;;6335481;22;20164;-92
2023/05/18 18:56:34;;;;;;;10.10;4.22;;;;;;;;;;6339558;22;20164;-90
2023/05/18 18:59:39;;;;;;;11.80;3.70;;;;;;;;;;6339380;22;20211;-92
2023/05/18 19:02:50;;;;;;;12.38;3.53;;;;;;;;;;6337120;22;20169;-92
2023/05/18 19:05:55;;;;;;;10.10;3.40;;;;;;;;;;6335501;22;20606;-90
2023/05/18 19:09:01;;;;;;;12.32;4.22;;;;;;;;;;6337933;22;20218;-91
2023/05/18 19:12:07;;;;;;;12.15;3.50;;;;;;;;;;6344626;22;20184;-92
2023/05/18 19:15:15;;;;;;;9.70;3.75;;;;;;;;;;6341258;22;20179;-90
2023/05/18 19:18:26;;;;;;;9.20;3.40;;;;;;;;;;6339630;22;20195;-91
2023/05/18 19:29:13;;;;;;;9.65;3.55;;;;;;;;;;6342227;22;20206;-93
2023/05/18 19:32:19;;;;;;;11.32;3.70;;;;;;;;;;6342111;22;20164;-91
2023/05/18 19:35:26;;;;;;;11.25;4.40;;;;;;;;;;6361117;22;20165;-91
2023/05/18 19:38:31;;;;;;;13.55;4.10;;;;;;;;;;6340032;22;20196;-92
2023/05/18 19:41:37;;;;;;;13.48;3.53;;;;;;;;;;6338914;22;20169;-92
2023/05/18 19:44:43;;;;;;;9.68;3.38;;;;;;;;;;6338547;22;20607;-93
2023/05/18 19:47:57;;;;;;;7.88;3.28;;;;;;;;;;6340566;22;20164;-91
2023/05/18 20:01:10;;;;;;;9.85;3.00;;;;;;;;;;6357118;22;20185;-91
2023/05/18 20:04:22;;;;;;;9.30;2.70;;;;;;;;;;6341086;22;20164;-93
2023/05/18 20:07:30;;;;;;;11.35;3.47;;;;;;;;;;6339307;22;20206;-90
2023/05/18 20:10:36;;;;;;;10.60;2.83;;;;;;;;;;6339090;22;20207;-92
2023/05/18 20:13:44;;;;;;;7.55;3.05;;;;;;;;;;6339349;22;20265;-92
2023/05/18 20:16:54;;;;;;;10.00;3.78;;;;;;;;;;6338841;22;20290;-91
2023/05/18 20:20:00;;;;;;;8.10;3.15;;;;;;;;;;6337347;22;20196;-92
2023/05/18 20:23:32;;;;;;;11.80;3.08;;;;;;;;;;6335402;22;20160;-91
2023/05/18 20:27:22;;;;;;;12.02;4.25;;;;;;;;;;6337635;22;20164;-91
2023/05/18 20:30:31;;;;;;;12.80;4.05;;;;;;;;;;6343429;22;20160;-91
2023/05/18 20:33:38;;;;;;;9.32;3.97;;;;;;;;;;6338366;22;20165;-91
2023/05/18 20:36:44;;;;;;;10.20;4.65;;;;;;;;;;6339362;22;20169;-91
2023/05/18 20:39:50;;;;;;;14.02;3.10;;;;;;;;;;6339868;22;20181;-90
2023/05/18 20:42:55;;;;;;;11.10;2.90;;;;;;;;;;6337693;22;20207;-92
2023/05/18 20:46:08;;;;;;;11.73;3.58;;;;;;;;;;6338750;22;20191;-91
2023/05/18 20:49:14;;;;;;;14.23;3.72;;;;;;;;;;6338507;22;20183;-89
2023/05/18 22:23:40;;;;;;;13.50;3.95;;;;;;;;;;6298876;22;20555;-92
2023/05/18 22:26:45;;;;;;;9.07;3.15;;;;;;;;;;6322577;22;20165;-93
2023/05/18 22:29:50;;;;;;;9.70;3.25;;;;;;;;;;6302020;22;20165;-94
2023/05/18 22:32:57;;;;;;;12.15;3.45;;;;;;;;;;6320738;22;20588;-92
2023/05/18 22:36:02;;;;;;;10.82;3.72;;;;;;;;;;6321281;22;20165;-91
2023/05/18 22:39:09;;;;;;;10.95;3.90;;;;;;;;;;6323045;22;20224;-94
2023/05/18 22:42:14;;;;;;;9.55;3.38;;;;;;;;;;6320639;22;20157;-93
2023/05/18 22:45:19;;;;;;;8.80;3.67;;;;;;;;;;6322164;22;20220;-91
2023/05/18 22:48:25;;;;;;;8.73;3.53;;;;;;;;;;6324408;22;20219;-92
2023/05/18 22:51:32;;;;;;;9.40;3.38;;;;;;;;;;6325289;22;20172;-91
2023/05/18 22:54:39;;;;;;;7.55;3.60;;;;;;;;;;6307977;22;20211;-93
2023/05/18 22:57:45;;;;;;;11.05;4.00;;;;;;;;;;6327024;22;20192;-92
2023/05/18 23:00:51;;;;;;;7.78;3.85;;;;;;;;;;6325351;22;20666;-91
2023/05/18 23:03:59;;;;;;;13.40;4.00;;;;;;;;;;6323355;22;20164;-91
2023/05/18 23:07:04;;;;;;;14.50;3.33;;;;;;;;;;6322928;22;20169;-93
2023/05/18 23:10:11;;;;;;;14.80;4.15;;;;;;;;;;6320955;22;20161;-92
2023/05/18 23:13:18;;;;;;;10.98;3.83;;;;;;;;;;6321548;22;20227;-92
2023/05/18 23:16:25;;;;;;;9.93;3.75;;;;;;;;;;6320108;22;20169;-91